createdAt,value
2017-04-26T00:09:34.159Z,4
2017-04-26T00:19:34.105Z,6
2017-04-26T00:29:34.229Z,5
2017-04-26T00:39:34.092Z,5
2017-04-26T00:49:34.103Z,6
2017-04-26T00:59:34.070Z,4
2017-04-26T01:09:34.085Z,9
2017-04-26T01:19:34.081Z,5
2017-04-26T01:29:34.060Z,6
2017-04-26T01:39:34.218Z,7
2017-04-26T01:49:34.163Z,13
2017-04-26T01:59:34.081Z,5
2017-04-26T02:09:34.078Z,7
2017-04-26T02:19:34.061Z,8
2017-04-26T02:29:34.142Z,11
2017-04-26T02:39:34.580Z,9
2017-04-26T02:49:34.176Z,7
2017-04-26T02:59:34.081Z,10
2017-04-26T03:09:34.123Z,7
2017-04-26T03:19:34.056Z,14
2017-04-26T03:29:34.020Z,12
2017-04-26T03:39:34.173Z,10
2017-04-26T03:49:34.108Z,16
2017-04-26T03:59:34.075Z,8
2017-04-26T04:09:34.248Z,10
2017-04-26T04:19:34.030Z,12
2017-04-26T04:29:34.077Z,9
2017-04-26T04:39:34.046Z,10
2017-04-26T04:49:34.063Z,15
2017-04-26T04:59:34.014Z,10
2017-04-26T05:09:34.110Z,8
2017-04-26T05:19:34.087Z,12
2017-04-26T05:29:34.000Z,10
2017-04-26T05:39:34.089Z,10
2017-04-26T05:49:34.042Z,13
2017-04-26T05:59:34.066Z,14
2017-04-26T06:09:34.013Z,13
2017-04-26T06:19:34.030Z,16
2017-04-26T06:29:33.987Z,10
2017-04-26T06:39:34.057Z,15
2017-04-26T06:49:34.094Z,11
2017-04-26T06:59:33.985Z,12
2017-04-26T07:09:34.076Z,10
2017-04-26T07:19:33.994Z,12
2017-04-26T07:29:34.289Z,11
2017-04-26T07:39:34.065Z,10
2017-04-26T07:49:33.988Z,11
2017-04-26T07:59:34.055Z,16
2017-04-26T08:09:34.439Z,9
2017-04-26T08:19:34.058Z,12
2017-04-26T08:29:34.034Z,11
2017-04-26T08:39:34.043Z,9
2017-04-26T08:49:34.074Z,9
2017-04-26T08:59:34.010Z,8
2017-04-26T09:09:34.032Z,7
2017-04-26T09:19:34.090Z,6
2017-04-26T09:29:34.010Z,8
2017-04-26T09:39:34.077Z,6
2017-04-26T09:49:34.045Z,7
2017-04-26T09:59:34.002Z,8
2017-04-26T10:09:34.058Z,10
2017-04-26T10:19:34.014Z,10
2017-04-26T10:29:41.394Z,7
2017-04-26T10:39:34.016Z,8
2017-04-26T10:49:34.086Z,7
2017-04-26T10:59:34.140Z,7
2017-04-26T11:09:34.033Z,6
2017-04-26T11:19:34.055Z,17
2017-04-26T11:29:34.131Z,13
2017-04-26T11:39:33.987Z,7
2017-04-26T11:49:34.216Z,8
2017-04-26T11:59:34.144Z,2
2017-04-26T12:09:34.000Z,4
2017-04-26T12:19:40.894Z,4
2017-04-26T12:29:34.192Z,3
2017-04-26T12:39:34.028Z,3
2017-04-26T12:49:34.026Z,3
2017-04-26T12:59:34.119Z,3
2017-04-26T13:09:34.012Z,5
2017-04-26T13:19:34.169Z,5
2017-04-26T13:29:34.064Z,5
2017-04-26T13:39:34.057Z,4
2017-04-26T13:49:34.109Z,6
2017-04-26T13:59:43.868Z,2
2017-04-26T14:09:34.029Z,3
2017-04-26T14:19:34.215Z,2
2017-04-26T14:29:34.106Z,2
2017-04-26T14:39:34.285Z,2
2017-04-26T14:49:34.067Z,2
2017-04-26T14:59:34.048Z,2
2017-04-26T15:09:34.067Z,3
2017-04-26T15:19:34.064Z,2
2017-04-26T15:29:34.187Z,2
2017-04-26T15:39:34.029Z,3
2017-04-26T15:49:34.038Z,2
2017-04-26T15:59:34.028Z,3
2017-04-26T16:09:34.070Z,2
2017-04-26T16:19:34.058Z,3
2017-04-26T16:29:34.268Z,2
2017-04-26T16:39:34.112Z,2
2017-04-26T16:49:34.030Z,6
2017-04-26T16:59:34.283Z,3
2017-04-26T17:09:34.477Z,3
2017-04-26T17:19:34.032Z,11
2017-04-26T17:29:34.038Z,4
2017-04-26T17:39:34.064Z,8
2017-04-26T17:49:33.997Z,2
2017-04-26T17:59:34.266Z,3
2017-04-26T18:09:34.035Z,6
2017-04-26T18:19:34.253Z,2
2017-04-26T18:29:34.015Z,3
2017-04-26T18:39:34.015Z,3
2017-04-26T18:49:34.141Z,2
2017-04-26T18:59:34.015Z,2
2017-04-26T19:09:33.968Z,3
2017-04-26T19:19:34.217Z,5
2017-04-26T19:29:34.012Z,3
2017-04-26T19:39:34.019Z,4
2017-04-26T19:49:34.092Z,3
2017-04-26T19:59:34.006Z,4
2017-04-26T20:09:34.063Z,4
2017-04-26T20:19:34.009Z,7
2017-04-26T20:29:34.028Z,7
2017-04-26T20:39:34.066Z,7
2017-04-26T20:49:34.047Z,6
2017-04-26T20:59:34.012Z,7
2017-04-26T21:09:34.118Z,5
2017-04-26T21:19:34.206Z,7
2017-04-26T21:29:34.089Z,6
2017-04-26T21:39:34.099Z,7
2017-04-26T21:49:34.209Z,6
2017-04-26T21:59:35.716Z,8
2017-04-26T22:09:34.041Z,8
2017-04-26T22:19:34.028Z,9
2017-04-26T22:29:33.973Z,9
2017-04-26T22:39:34.024Z,9
2017-04-26T22:49:34.080Z,11
2017-04-26T22:59:34.022Z,10
2017-04-26T23:09:33.948Z,11
2017-04-26T23:19:34.057Z,10
2017-04-26T23:29:33.924Z,10
2017-04-26T23:39:33.911Z,10
2017-04-26T23:49:34.063Z,11
2017-04-26T23:59:33.968Z,12
